createdAt,value
2022-11-25T00:03:16.119Z,65242.81
2022-11-25T00:08:21.296Z,65197.91
2022-11-25T00:13:25.008Z,65132.13
2022-11-25T00:18:28.761Z,65136.88
2022-11-25T00:23:33.991Z,65149.53
2022-11-25T00:28:38.797Z,65224.00
2022-11-25T00:33:42.984Z,65203.88
2022-11-25T00:38:48.402Z,65260.47
2022-11-25T00:44:09.673Z,65170.91
2022-11-25T00:49:13.432Z,65258.56
2022-11-25T00:54:18.704Z,65124.13
2022-11-25T00:59:22.854Z,65235.16
2022-11-25T01:04:26.684Z,65116.69
2022-11-25T01:09:32.363Z,65155.91
2022-11-25T01:14:36.772Z,65201.53
2022-11-25T01:19:42.005Z,65126.59
2022-11-25T01:24:47.118Z,65163.47
2022-11-25T01:29:50.943Z,65176.66
2022-11-25T01:34:54.702Z,65134.75
2022-11-25T01:39:59.847Z,65144.97
2022-11-25T01:45:35.262Z,65123.72
2022-11-25T01:50:40.073Z,65132.66
2022-11-25T01:55:49.608Z,65133.59
2022-11-25T02:00:53.696Z,65166.97
2022-11-25T02:06:05.187Z,65120.44
2022-11-25T02:11:11.087Z,65246.31
2022-11-25T02:16:15.336Z,65214.94
2022-11-25T02:21:25.746Z,65230.97
2022-11-25T02:26:32.363Z,65234.09
2022-11-25T02:31:36.405Z,65234.72
2022-11-25T02:36:40.421Z,65265.03
2022-11-25T02:41:50.728Z,65408.25
2022-11-25T02:46:55.307Z,65251.09
2022-11-25T02:51:59.272Z,65219.28
2022-11-25T02:57:06.242Z,65193.03
2022-11-25T03:02:12.142Z,65125.63
2022-11-25T03:07:16.084Z,65127.22
2022-11-25T03:12:21.304Z,65160.69
2022-11-25T03:17:29.834Z,65171.44
2022-11-25T03:22:33.687Z,65283.03
2022-11-25T03:27:42.862Z,65316.00
2022-11-25T03:32:47.493Z,65231.41
2022-11-25T03:37:51.343Z,65187.19
2022-11-25T03:42:56.769Z,65225.16
2022-11-25T03:48:01.300Z,65198.97
2022-11-25T03:53:05.644Z,65233.44
2022-11-25T03:58:11.107Z,65266.22
2022-11-25T04:03:14.971Z,65211.22
2022-11-25T04:08:19.171Z,65243.13
2022-11-25T04:13:24.909Z,65283.97
2022-11-25T04:18:29.480Z,65261.31
2022-11-25T04:23:35.782Z,65227.69
2022-11-25T04:28:48.681Z,65214.09
2022-11-25T04:33:53.014Z,65283.03
2022-11-25T04:38:59.807Z,65247.47
2022-11-25T04:44:05.671Z,65242.38
2022-11-25T04:49:09.634Z,65321.34
2022-11-25T04:54:17.399Z,65257.50
2022-11-25T04:59:41.817Z,65421.47
2022-11-25T05:04:49.889Z,65390.22
2022-11-25T05:09:54.324Z,65357.00
2022-11-25T05:15:11.933Z,65462.56
2022-11-25T05:20:16.585Z,65507.88
2022-11-25T05:25:21.356Z,65410.81
2022-11-25T05:30:58.606Z,65314.41
2022-11-25T05:36:04.274Z,65415.50
2022-11-25T05:41:16.345Z,65400.56
2022-11-25T05:46:24.609Z,65449.16
2022-11-25T05:51:32.476Z,65426.34
2022-11-25T05:56:40.199Z,65467.91
2022-11-25T06:02:07.219Z,65456.63
2022-11-25T06:07:11.418Z,65344.31
2022-11-25T06:12:17.517Z,65324.13
2022-11-25T06:17:29.653Z,65358.63
2022-11-25T06:22:43.149Z,65309.72
2022-11-25T06:28:11.249Z,65422.00
2022-11-25T06:33:13.832Z,65464.16
2022-11-25T06:38:20.671Z,65451.28
2022-11-25T06:43:24.638Z,65449.16
2022-11-25T06:48:30.298Z,65553.66
2022-11-25T06:53:35.135Z,65515.34
2022-11-25T06:58:39.427Z,65482.84
2022-11-25T07:03:45.409Z,65496.25
2022-11-25T07:08:50.155Z,65459.72
2022-11-25T07:13:55.301Z,65429.66
2022-11-25T07:19:02.272Z,65488.16
2022-11-25T07:24:08.132Z,65504.06
2022-11-25T07:34:38.002Z,65562.81
2022-11-25T07:39:41.866Z,65529.84
2022-11-25T07:44:45.660Z,65496.69
2022-11-25T07:50:11.563Z,65676.34
2022-11-25T07:55:15.175Z,65659.47
2022-11-25T08:00:19.873Z,65618.81
2022-11-25T08:05:25.139Z,65574.09
2022-11-25T08:10:28.963Z,65756.00
2022-11-25T08:15:34.108Z,65702.59
2022-11-25T08:20:39.530Z,65624.25
2022-11-25T08:25:48.992Z,65580.94
2022-11-25T08:30:54.356Z,65583.69
2022-11-25T08:35:59.586Z,65607.16
2022-11-25T08:41:03.635Z,65643.47
2022-11-25T08:46:12.475Z,65687.22
2022-11-25T08:51:20.869Z,65609.28
2022-11-25T08:56:26.529Z,65667.47
2022-11-25T09:01:30.497Z,65644.44
2022-11-25T09:06:35.861Z,65697.47
2022-11-25T09:11:39.718Z,65684.22
2022-11-25T09:16:43.917Z,65690.94
2022-11-25T09:21:49.583Z,65725.47
2022-11-25T09:26:53.436Z,65656.25
2022-11-25T09:31:57.312Z,65652.41
2022-11-25T09:37:02.649Z,65658.31
2022-11-25T09:42:54.317Z,65628.50
2022-11-25T09:48:10.470Z,65630.44
2022-11-25T09:53:30.074Z,65639.53
2022-11-25T09:58:37.249Z,65608.22
2022-11-25T10:03:44.703Z,65695.03
2022-11-25T10:08:51.780Z,65520.78
2022-11-25T10:13:59.981Z,65539.53
2022-11-25T10:19:13.116Z,65531.88
2022-11-25T10:24:21.439Z,65652.88
2022-11-25T10:29:28.089Z,65548.94
2022-11-25T10:34:38.270Z,65625.94
2022-11-25T10:39:43.688Z,65639.72
2022-11-25T10:44:47.717Z,65567.50
2022-11-25T10:50:12.373Z,65497.75
2022-11-25T10:55:20.510Z,65601.72
2022-11-25T11:00:30.689Z,65606.00
2022-11-25T11:05:34.705Z,65608.22
2022-11-25T11:10:40.829Z,65588.84
2022-11-25T11:15:48.037Z,65602.91
2022-11-25T11:20:53.699Z,65685.53
2022-11-25T11:26:02.402Z,65628.94
2022-11-25T11:31:10.136Z,65703.66
2022-11-25T11:36:32.934Z,65616.25
2022-11-25T11:41:45.432Z,65557.66
2022-11-25T11:47:03.143Z,65694.50
2022-11-25T11:52:15.313Z,65605.91
2022-11-25T11:57:28.401Z,65536.75
2022-11-25T12:02:45.331Z,65653.59
2022-11-25T12:08:01.693Z,65563.78
2022-11-25T12:13:17.084Z,65616.16
2022-11-25T12:18:38.065Z,65568.56
2022-11-25T12:23:49.976Z,65603.97
2022-11-25T12:28:59.162Z,65553.22
2022-11-25T12:34:09.092Z,65687.22
2022-11-25T12:39:21.431Z,65589.56
2022-11-25T12:44:32.503Z,65602.28
2022-11-25T12:49:42.101Z,65658.41
2022-11-25T12:55:19.038Z,65612.06
2022-11-25T13:00:41.053Z,65638.66
2022-11-25T13:06:16.820Z,65727.28
2022-11-25T13:11:41.797Z,65672.72
2022-11-25T13:16:50.743Z,65527.06
2022-11-25T13:22:02.796Z,65473.22
2022-11-25T13:27:07.232Z,65423.16
2022-11-25T13:37:41.797Z,65437.44
2022-11-25T13:42:46.249Z,65419.53
2022-11-25T13:47:50.592Z,65476.44
2022-11-25T13:53:02.199Z,65489.22
2022-11-25T13:58:17.975Z,65504.16
2022-11-25T14:03:44.601Z,65466.75
2022-11-25T14:09:00.622Z,65448.19
2022-11-25T14:14:09.950Z,65450.94
2022-11-25T14:20:03.858Z,65467.38
2022-11-25T14:25:20.389Z,65437.63
2022-11-25T14:30:26.927Z,65482.84
2022-11-25T14:35:43.552Z,65574.09
2022-11-25T14:40:59.154Z,65565.03
2022-11-25T14:46:16.718Z,65565.91
2022-11-25T14:51:21.110Z,65683.91
2022-11-25T14:56:29.030Z,65557.56
2022-11-25T15:01:34.585Z,65567.69
2022-11-25T15:06:41.131Z,65621.38
2022-11-25T15:11:47.019Z,65695.25
2022-11-25T15:16:50.965Z,65618.28
2022-11-25T15:22:23.061Z,65690.88
2022-11-25T15:27:26.694Z,65648.59
2022-11-25T15:32:37.617Z,65682.75
2022-11-25T15:37:41.376Z,65760.38
2022-11-25T15:42:46.686Z,65702.16
2022-11-25T15:47:50.562Z,65640.06
2022-11-25T15:52:57.024Z,65719.25
2022-11-25T15:58:05.957Z,65686.25
2022-11-25T16:03:20.643Z,65663.09
2022-11-25T16:08:30.102Z,65743.28
2022-11-25T16:13:38.253Z,65759.31
2022-11-25T16:18:49.597Z,65746.50
2022-11-25T16:23:58.019Z,65800.47
2022-11-25T16:29:14.624Z,65692.47
2022-11-25T16:34:20.972Z,65648.06
2022-11-25T16:39:26.159Z,65724.59
2022-11-25T16:44:33.222Z,65748.09
2022-11-25T16:49:37.237Z,65611.78
2022-11-25T16:54:41.933Z,65620.41
2022-11-25T16:59:53.246Z,65720.22
2022-11-25T17:05:08.356Z,65724.59
2022-11-25T17:10:12.872Z,65767.88
2022-11-25T17:15:20.966Z,65783.88
2022-11-25T17:20:25.697Z,65828.69
2022-11-25T17:25:36.504Z,65812.66
2022-11-25T17:30:44.185Z,65821.22
2022-11-25T17:35:48.028Z,65788.09
2022-11-25T17:40:51.816Z,65753.97
2022-11-25T17:45:57.221Z,65797.81
2022-11-25T17:51:05.933Z,65758.78
2022-11-25T17:56:22.203Z,65841.00
2022-11-25T18:01:29.408Z,65795.13
2022-11-25T18:06:33.314Z,65829.78
2022-11-25T18:11:40.284Z,65733.50
2022-11-25T18:16:47.751Z,65804.13
2022-11-25T18:21:51.643Z,65794.50
2022-11-25T18:26:55.411Z,65794.06
2022-11-25T18:32:00.740Z,65705.91
2022-11-25T18:37:04.993Z,65708.94
2022-11-25T18:42:09.473Z,65696.84
2022-11-25T18:47:14.865Z,65793.50
2022-11-25T18:52:18.920Z,65682.97
2022-11-25T18:57:22.811Z,65765.00
2022-11-25T19:02:28.031Z,65613.38
2022-11-25T19:07:32.102Z,65579.88
2022-11-25T19:12:36.038Z,65563.22
2022-11-25T19:17:42.781Z,65507.34
2022-11-25T19:22:47.096Z,65570.06
2022-11-25T19:27:55.055Z,65647.53
2022-11-25T19:33:02.756Z,65699.59
2022-11-25T19:38:14.702Z,65693.63
2022-11-25T19:43:18.583Z,65733.78
2022-11-25T19:48:25.030Z,65735.72
2022-11-25T19:53:33.762Z,65734.75
2022-11-25T19:58:38.054Z,65695.16
2022-11-25T20:03:47.992Z,65707.16
2022-11-25T20:08:52.685Z,65772.78
2022-11-25T20:13:56.554Z,65765.63
2022-11-25T20:19:01.771Z,65754.50
2022-11-25T20:24:12.663Z,65751.84
2022-11-25T20:29:19.696Z,65843.66
2022-11-25T20:34:24.876Z,65806.25
2022-11-25T20:39:28.648Z,65804.13
2022-11-25T20:44:32.564Z,65853.38
2022-11-25T20:49:38.115Z,65900.31
2022-11-25T20:54:42.014Z,65920.13
2022-11-25T20:59:45.917Z,65952.75
2022-11-25T21:04:51.097Z,65918.44
2022-11-25T21:09:55.148Z,65811.59
2022-11-25T21:14:58.993Z,65688.81
2022-11-25T21:20:04.316Z,65748.09
2022-11-25T21:25:10.649Z,65808.94
2022-11-25T21:30:20.141Z,65775.34
2022-11-25T21:35:29.134Z,65679.75
2022-11-25T21:40:37.751Z,65750.59
2022-11-25T21:45:41.796Z,65769.91
2022-11-25T21:50:47.128Z,65787.13
2022-11-25T21:55:52.023Z,65859.25
2022-11-25T22:00:58.369Z,65890.28
2022-11-25T22:06:03.530Z,65856.69
2022-11-25T22:11:14.234Z,65856.69
2022-11-25T22:16:22.360Z,65841.63
2022-11-25T22:21:27.572Z,65871.13
2022-11-25T22:26:34.090Z,65824.41
2022-11-25T22:31:38.082Z,65848.22
2022-11-25T22:36:43.298Z,65851.78
2022-11-25T22:41:50.119Z,65867.63
2022-11-25T22:46:54.798Z,65871.13
2022-11-25T22:52:00.147Z,65878.94
2022-11-25T22:57:03.873Z,65836.81
2022-11-25T23:02:08.464Z,65823.81
2022-11-25T23:07:13.967Z,65889.09
2022-11-25T23:12:19.216Z,65895.63
2022-11-25T23:17:25.642Z,65895.06
2022-11-25T23:22:30.823Z,65905.78
2022-11-25T23:27:34.803Z,65913.81
2022-11-25T23:32:38.610Z,65881.09
2022-11-25T23:37:43.765Z,65872.00
2022-11-25T23:42:48.049Z,65868.34
2022-11-25T23:47:53.522Z,65921.91
2022-11-25T23:53:02.384Z,65878.59
2022-11-25T23:58:15.216Z,65876.81
